createdAt,value
2022-12-25T00:02:17.640Z,3.82
2022-12-25T00:04:44.079Z,4.09
2022-12-25T00:07:10.456Z,4.03
2022-12-25T00:09:36.813Z,4.01
2022-12-25T00:12:03.391Z,4.08
2022-12-25T00:14:29.769Z,4.04
2022-12-25T00:16:56.126Z,4.06
2022-12-25T00:19:22.493Z,4.21
2022-12-25T00:21:48.878Z,4.22
2022-12-25T00:24:15.316Z,4.08
2022-12-25T00:26:41.709Z,4.18
2022-12-25T00:29:12.396Z,4.20
2022-12-25T00:31:38.820Z,4.21
2022-12-25T00:34:05.234Z,4.16
2022-12-25T00:36:36.229Z,4.16
2022-12-25T00:39:07.199Z,4.09
2022-12-25T00:41:51.983Z,4.18
2022-12-25T00:44:18.335Z,4.08
2022-12-25T00:46:44.947Z,4.00
2022-12-25T00:49:11.931Z,4.01
2022-12-25T00:51:38.381Z,4.03
2022-12-25T00:54:04.792Z,4.02
2022-12-25T00:56:31.172Z,4.09
2022-12-25T00:58:57.565Z,3.91
2022-12-25T01:01:24.081Z,4.12
2022-12-25T01:03:50.590Z,4.13
2022-12-25T01:06:17.142Z,4.14
2022-12-25T01:09:03.696Z,4.16
2022-12-25T01:11:31.085Z,3.98
2022-12-25T01:13:58.421Z,4.26
2022-12-25T01:16:24.972Z,4.24
2022-12-25T01:18:51.360Z,4.26
2022-12-25T01:21:22.148Z,4.25
2022-12-25T01:23:50.456Z,4.26
2022-12-25T01:26:17.867Z,4.33
2022-12-25T01:28:44.640Z,4.29
2022-12-25T01:31:13.592Z,4.32
2022-12-25T01:33:41.523Z,4.21
2022-12-25T01:36:25.580Z,4.28
2022-12-25T01:38:53.255Z,4.23
2022-12-25T01:41:21.912Z,4.15
2022-12-25T01:44:07.982Z,4.24
2022-12-25T01:46:35.348Z,4.35
2022-12-25T01:49:23.554Z,4.40
2022-12-25T01:51:57.118Z,4.47
2022-12-25T01:54:29.053Z,4.42
2022-12-25T01:56:59.348Z,4.34
2022-12-25T01:59:27.347Z,4.37
2022-12-25T02:01:53.998Z,4.35
2022-12-25T02:04:40.909Z,4.44
2022-12-25T02:07:11.326Z,4.50
2022-12-25T02:09:38.102Z,4.56
2022-12-25T02:12:05.676Z,4.63
2022-12-25T02:14:36.625Z,4.71
2022-12-25T02:17:10.355Z,4.72
2022-12-25T02:19:46.916Z,4.74
2022-12-25T02:23:01.491Z,4.84
2022-12-25T02:25:55.686Z,4.90
2022-12-25T02:28:32.430Z,4.98
2022-12-25T02:31:10.454Z,5.02
2022-12-25T02:34:04.722Z,5.06
2022-12-25T02:36:39.051Z,5.10
2022-12-25T02:39:32.186Z,5.12
2022-12-25T02:42:01.730Z,5.16
2022-12-25T02:44:48.313Z,5.20
2022-12-25T02:47:34.105Z,5.21
2022-12-25T02:50:19.626Z,5.28
2022-12-25T02:53:05.928Z,5.18
2022-12-25T02:55:57.160Z,5.19
2022-12-25T02:58:45.079Z,5.19
2022-12-25T03:01:35.180Z,5.41
2022-12-25T03:04:28.719Z,5.48
2022-12-25T03:07:04.298Z,5.55
2022-12-25T03:10:14.910Z,5.56
2022-12-25T03:12:52.553Z,5.59
2022-12-25T03:15:39.233Z,5.66
2022-12-25T03:18:10.335Z,5.68
2022-12-25T03:20:55.869Z,5.67
2022-12-25T03:23:46.726Z,5.70
2022-12-25T03:26:31.624Z,5.72
2022-12-25T03:28:58.028Z,5.75
2022-12-25T03:31:44.883Z,5.86
2022-12-25T03:34:41.942Z,5.89
2022-12-25T03:37:33.195Z,5.89
2022-12-25T03:40:32.800Z,5.91
2022-12-25T03:43:40.114Z,5.99
2022-12-25T03:46:33.054Z,6.05
2022-12-25T03:49:26.027Z,5.99
2022-12-25T03:52:14.186Z,5.89
2022-12-25T03:55:02.573Z,6.06
2022-12-25T03:57:47.537Z,6.09
2022-12-25T04:00:32.748Z,6.14
2022-12-25T04:03:17.745Z,6.21
2022-12-25T04:06:02.553Z,6.29
2022-12-25T04:08:51.881Z,6.32
2022-12-25T04:11:37.311Z,6.18
2022-12-25T04:14:22.090Z,6.33
2022-12-25T04:17:06.849Z,6.17
2022-12-25T04:19:51.732Z,6.37
2022-12-25T04:22:36.575Z,6.45
2022-12-25T04:25:23.273Z,6.45
2022-12-25T04:28:08.257Z,6.51
2022-12-25T04:30:53.350Z,6.54
2022-12-25T04:33:38.264Z,6.58
2022-12-25T04:36:13.776Z,6.67
2022-12-25T04:38:41.095Z,6.63
2022-12-25T04:41:09.799Z,6.69
2022-12-25T04:43:36.410Z,6.65
2022-12-25T04:46:03.885Z,6.73
2022-12-25T04:48:33.007Z,6.70
2022-12-25T04:51:13.297Z,6.73
2022-12-25T04:53:39.696Z,6.75
2022-12-25T04:56:06.200Z,6.79
2022-12-25T04:58:33.028Z,6.66
2022-12-25T05:01:01.856Z,6.90
2022-12-25T05:03:29.627Z,6.90
2022-12-25T05:05:56.155Z,6.80
2022-12-25T05:08:22.924Z,6.90
2022-12-25T05:10:49.718Z,6.96
2022-12-25T05:13:16.180Z,7.01
2022-12-25T05:15:43.514Z,7.05
2022-12-25T05:18:10.216Z,7.04
2022-12-25T05:20:40.146Z,7.04
2022-12-25T05:23:06.750Z,6.97
2022-12-25T05:25:33.162Z,7.13
2022-12-25T05:27:59.539Z,7.21
2022-12-25T05:30:25.938Z,7.24
2022-12-25T05:32:52.311Z,7.24
2022-12-25T05:35:18.735Z,7.27
2022-12-25T05:37:45.283Z,7.32
2022-12-25T05:40:11.860Z,7.42
2022-12-25T05:42:38.264Z,7.36
2022-12-25T05:45:05.131Z,7.36
2022-12-25T05:47:31.524Z,7.36
2022-12-25T05:49:57.894Z,7.39
2022-12-25T05:52:24.298Z,7.40
2022-12-25T05:54:50.648Z,7.50
2022-12-25T05:57:17.028Z,7.53
2022-12-25T05:59:43.400Z,7.59
2022-12-25T06:02:09.814Z,7.63
2022-12-25T06:04:36.319Z,7.69
2022-12-25T06:07:02.708Z,7.56
2022-12-25T06:09:29.047Z,7.75
2022-12-25T06:11:55.434Z,7.80
2022-12-25T06:14:21.862Z,7.72
2022-12-25T06:16:52.329Z,7.82
2022-12-25T06:19:19.795Z,7.86
2022-12-25T06:21:46.298Z,7.82
2022-12-25T06:24:19.206Z,7.87
2022-12-25T06:26:47.914Z,7.86
2022-12-25T06:29:14.676Z,7.93
2022-12-25T06:31:41.490Z,7.92
2022-12-25T06:34:08.429Z,7.93
2022-12-25T06:36:37.468Z,7.87
2022-12-25T06:39:04.008Z,7.89
2022-12-25T06:41:31.007Z,7.90
2022-12-25T06:43:59.772Z,7.95
2022-12-25T06:46:29.067Z,7.84
2022-12-25T06:48:56.890Z,8.00
2022-12-25T06:51:26.426Z,8.03
2022-12-25T06:53:53.532Z,8.04
2022-12-25T06:56:24.064Z,8.07
2022-12-25T06:58:53.629Z,8.10
2022-12-25T07:01:24.501Z,8.05
2022-12-25T07:03:56.267Z,7.99
2022-12-25T07:06:23.042Z,7.91
2022-12-25T07:08:49.475Z,7.98
2022-12-25T07:11:15.913Z,8.02
2022-12-25T07:13:42.287Z,8.00
2022-12-25T07:16:09.999Z,8.00
2022-12-25T07:18:36.566Z,7.98
2022-12-25T07:21:11.570Z,7.97
2022-12-25T07:23:37.985Z,7.92
2022-12-25T07:26:04.930Z,8.00
2022-12-25T07:28:32.305Z,7.92
2022-12-25T07:31:03.680Z,7.95
2022-12-25T07:33:30.098Z,7.93
2022-12-25T07:35:56.498Z,7.93
2022-12-25T07:38:22.922Z,7.94
2022-12-25T07:40:50.089Z,7.92
2022-12-25T07:43:16.727Z,7.91
2022-12-25T07:45:43.148Z,7.93
2022-12-25T07:48:15.318Z,7.83
2022-12-25T07:50:42.936Z,7.86
2022-12-25T07:53:09.339Z,7.87
2022-12-25T07:55:35.765Z,7.88
2022-12-25T07:58:02.152Z,7.84
2022-12-25T08:00:32.375Z,7.85
2022-12-25T08:02:59.766Z,7.93
2022-12-25T08:05:26.434Z,7.91
2022-12-25T08:07:57.676Z,7.97
2022-12-25T08:10:24.667Z,7.97
2022-12-25T08:12:51.983Z,7.99
2022-12-25T08:15:18.431Z,8.01
2022-12-25T08:17:44.916Z,8.01
2022-12-25T08:20:11.671Z,8.02
2022-12-25T08:22:38.054Z,8.02
2022-12-25T08:25:04.855Z,8.03
2022-12-25T08:27:31.253Z,8.06
2022-12-25T08:29:57.602Z,7.95
2022-12-25T08:32:24.030Z,8.08
2022-12-25T08:34:50.418Z,8.08
2022-12-25T08:37:16.775Z,8.10
2022-12-25T08:39:43.128Z,7.98
2022-12-25T08:42:09.536Z,8.10
2022-12-25T08:44:36.185Z,8.11
2022-12-25T08:47:02.565Z,8.12
2022-12-25T08:49:29.152Z,8.07
2022-12-25T08:51:55.736Z,8.07
2022-12-25T08:54:22.192Z,8.08
2022-12-25T08:56:48.553Z,8.07
2022-12-25T08:59:14.931Z,8.04
2022-12-25T09:01:41.458Z,8.01
2022-12-25T09:04:07.916Z,7.95
2022-12-25T09:06:34.401Z,8.01
2022-12-25T09:09:00.779Z,7.86
2022-12-25T09:11:27.169Z,7.95
2022-12-25T09:13:53.555Z,8.01
2022-12-25T09:16:22.132Z,7.95
2022-12-25T09:18:49.479Z,7.99
2022-12-25T09:21:17.390Z,7.97
2022-12-25T09:23:44.100Z,7.93
2022-12-25T09:26:14.977Z,7.92
2022-12-25T09:28:48.395Z,7.86
2022-12-25T09:31:15.113Z,7.96
2022-12-25T09:33:41.513Z,8.01
2022-12-25T09:36:08.976Z,8.05
2022-12-25T09:38:35.497Z,8.02
2022-12-25T09:41:14.647Z,8.01
2022-12-25T09:43:47.681Z,8.06
2022-12-25T09:46:19.137Z,8.09
2022-12-25T09:48:54.979Z,8.15
2022-12-25T09:51:23.361Z,8.17
2022-12-25T09:53:58.222Z,8.23
2022-12-25T09:56:25.848Z,8.28
2022-12-25T09:58:53.439Z,8.28
2022-12-25T10:01:49.177Z,8.36
2022-12-25T10:04:40.824Z,8.38
2022-12-25T10:07:47.734Z,8.43
2022-12-25T10:10:31.835Z,8.42
2022-12-25T10:13:22.395Z,8.43
2022-12-25T10:15:59.194Z,8.43
2022-12-25T10:18:44.579Z,8.48
2022-12-25T10:21:15.871Z,8.48
2022-12-25T10:23:47.835Z,8.54
2022-12-25T10:26:20.148Z,8.59
2022-12-25T10:28:53.671Z,8.57
2022-12-25T10:31:25.917Z,8.56
2022-12-25T10:33:53.852Z,8.55
2022-12-25T10:36:25.433Z,8.58
2022-12-25T10:38:52.754Z,8.53
2022-12-25T10:42:00.061Z,8.62
2022-12-25T10:44:26.429Z,8.58
2022-12-25T10:46:58.367Z,8.62
2022-12-25T10:49:30.402Z,8.68
2022-12-25T10:51:56.796Z,8.75
2022-12-25T10:54:23.122Z,8.75
2022-12-25T10:56:58.466Z,8.76
2022-12-25T10:59:27.676Z,8.63
2022-12-25T11:01:55.981Z,8.83
2022-12-25T11:04:28.503Z,8.87
2022-12-25T11:07:05.132Z,8.86
2022-12-25T11:09:32.156Z,8.95
2022-12-25T11:11:59.702Z,8.91
2022-12-25T11:14:28.067Z,8.94
2022-12-25T11:16:54.858Z,9.01
2022-12-25T11:19:21.145Z,9.10
2022-12-25T11:21:52.609Z,9.17
2022-12-25T11:24:21.015Z,9.14
2022-12-25T11:26:53.228Z,9.21
2022-12-25T11:29:24.646Z,9.23
2022-12-25T11:31:52.583Z,9.21
2022-12-25T11:34:29.598Z,9.32
2022-12-25T11:36:58.010Z,9.35
2022-12-25T11:39:28.812Z,9.44
2022-12-25T11:42:05.364Z,9.42
2022-12-25T11:44:51.890Z,9.46
2022-12-25T11:47:33.566Z,9.52
2022-12-25T11:50:14.005Z,9.54
2022-12-25T11:52:44.715Z,9.61
2022-12-25T11:55:23.445Z,9.56
2022-12-25T11:58:01.124Z,9.57
2022-12-25T12:00:31.335Z,9.54
2022-12-25T12:03:15.185Z,9.47
2022-12-25T12:05:49.246Z,9.32
2022-12-25T12:08:15.752Z,9.53
2022-12-25T12:10:56.918Z,9.48
2022-12-25T12:14:02.252Z,9.44
2022-12-25T12:16:29.444Z,9.43
2022-12-25T12:18:55.958Z,9.36
2022-12-25T12:21:28.760Z,9.28
2022-12-25T12:24:04.538Z,9.33
2022-12-25T12:26:37.912Z,9.25
2022-12-25T12:29:06.721Z,9.25
2022-12-25T12:31:40.020Z,9.24
2022-12-25T12:34:17.338Z,9.22
2022-12-25T12:36:43.814Z,9.12
2022-12-25T12:39:24.081Z,9.17
2022-12-25T12:41:50.649Z,9.19
2022-12-25T12:44:17.803Z,9.14
2022-12-25T12:46:56.166Z,9.11
2022-12-25T12:49:27.814Z,9.10
2022-12-25T12:52:10.435Z,9.09
2022-12-25T12:54:57.106Z,9.08
2022-12-25T12:57:27.110Z,9.06
2022-12-25T12:59:53.692Z,9.07
2022-12-25T13:02:48.000Z,9.05
2022-12-25T13:05:29.065Z,9.06
2022-12-25T13:08:37.579Z,9.07
2022-12-25T13:11:19.825Z,9.07
2022-12-25T13:13:48.317Z,9.08
2022-12-25T13:16:34.757Z,9.06
2022-12-25T13:19:06.335Z,9.07
2022-12-25T13:21:33.298Z,9.02
2022-12-25T13:24:08.867Z,9.04
2022-12-25T13:26:35.505Z,8.90
2022-12-25T13:29:07.836Z,8.86
2022-12-25T13:31:37.650Z,8.99
2022-12-25T13:34:22.309Z,9.00
2022-12-25T13:36:48.844Z,8.92
2022-12-25T13:39:17.528Z,9.01
2022-12-25T13:42:05.197Z,8.97
2022-12-25T13:44:40.678Z,8.87
2022-12-25T13:47:20.602Z,8.87
2022-12-25T13:49:48.310Z,8.88
2022-12-25T13:52:18.512Z,8.83
2022-12-25T13:55:19.117Z,8.84
2022-12-25T13:57:55.414Z,8.66
2022-12-25T14:00:48.612Z,8.84
2022-12-25T14:03:23.742Z,8.75
2022-12-25T14:06:16.377Z,8.78
2022-12-25T14:08:43.539Z,8.80
2022-12-25T14:11:14.170Z,8.75
2022-12-25T14:13:43.461Z,8.59
2022-12-25T14:16:11.189Z,8.64
2022-12-25T14:18:37.725Z,8.69
2022-12-25T14:21:16.601Z,8.69
2022-12-25T14:23:46.853Z,8.68
2022-12-25T14:26:20.135Z,8.66
2022-12-25T14:28:51.910Z,8.63
2022-12-25T14:31:18.935Z,8.62
2022-12-25T14:33:46.756Z,8.67
2022-12-25T14:36:13.985Z,8.62
2022-12-25T14:38:42.486Z,8.65
2022-12-25T14:41:33.403Z,8.62
2022-12-25T14:44:25.579Z,8.62
2022-12-25T14:47:04.157Z,8.57
2022-12-25T14:49:32.463Z,8.56
2022-12-25T14:51:58.997Z,8.56
2022-12-25T14:54:26.603Z,8.54
2022-12-25T14:56:55.980Z,8.51
2022-12-25T14:59:26.916Z,8.51
2022-12-25T15:02:01.150Z,8.40
2022-12-25T15:04:29.461Z,8.34
2022-12-25T15:07:06.846Z,8.47
2022-12-25T15:09:33.544Z,8.46
2022-12-25T15:11:59.930Z,8.43
2022-12-25T15:14:26.821Z,8.41
2022-12-25T15:16:58.981Z,8.43
2022-12-25T15:19:34.858Z,8.44
2022-12-25T15:22:03.775Z,8.36
2022-12-25T15:24:30.125Z,8.33
2022-12-25T15:27:00.005Z,8.43
2022-12-25T15:29:59.684Z,8.46
2022-12-25T15:32:19.111Z,8.44
2022-12-25T15:34:47.099Z,8.47
2022-12-25T15:37:14.122Z,8.48
2022-12-25T15:39:40.472Z,8.39
2022-12-25T15:42:23.091Z,8.48
2022-12-25T15:44:50.383Z,8.47
2022-12-25T15:47:19.963Z,8.50
2022-12-25T15:49:49.120Z,8.47
2022-12-25T15:52:16.857Z,8.53
2022-12-25T15:54:43.666Z,8.47
2022-12-25T15:57:20.681Z,8.44
2022-12-25T15:59:47.126Z,8.39
2022-12-25T16:02:16.889Z,8.44
2022-12-25T16:04:43.519Z,8.48
2022-12-25T16:07:20.796Z,8.43
2022-12-25T16:09:47.493Z,8.48
2022-12-25T16:12:13.884Z,8.47
2022-12-25T16:14:40.527Z,8.48
2022-12-25T16:17:07.471Z,8.51
2022-12-25T16:19:33.914Z,8.50
2022-12-25T16:22:00.285Z,8.51
2022-12-25T16:24:26.649Z,8.52
2022-12-25T16:26:53.016Z,8.49
2022-12-25T16:29:19.357Z,8.46
2022-12-25T16:31:45.821Z,8.51
2022-12-25T16:34:12.271Z,8.39
2022-12-25T16:36:38.993Z,8.45
2022-12-25T16:39:06.686Z,8.49
2022-12-25T16:41:34.155Z,8.41
2022-12-25T16:44:09.031Z,8.42
2022-12-25T16:46:36.796Z,8.39
2022-12-25T16:49:03.821Z,8.44
2022-12-25T16:51:30.192Z,8.46
2022-12-25T16:53:56.648Z,8.38
2022-12-25T16:56:28.268Z,8.47
2022-12-25T16:58:57.438Z,8.47
2022-12-25T17:01:24.566Z,8.47
2022-12-25T17:03:51.970Z,8.40
2022-12-25T17:06:20.571Z,8.44
2022-12-25T17:08:47.720Z,8.43
2022-12-25T17:11:15.164Z,8.44
2022-12-25T17:13:45.591Z,8.41
2022-12-25T17:16:17.516Z,8.37
2022-12-25T17:18:43.947Z,8.37
2022-12-25T17:21:10.506Z,8.36
2022-12-25T17:23:38.489Z,8.38
2022-12-25T17:26:06.080Z,8.33
2022-12-25T17:28:34.389Z,8.30
2022-12-25T17:31:06.086Z,8.33
2022-12-25T17:33:36.161Z,8.32
2022-12-25T17:36:04.361Z,8.32
2022-12-25T17:38:32.075Z,8.31
2022-12-25T17:40:59.818Z,8.32
2022-12-25T17:43:26.176Z,8.34
2022-12-25T17:45:52.886Z,8.31
2022-12-25T17:48:19.635Z,8.30
2022-12-25T17:50:46.353Z,8.25
2022-12-25T17:53:13.058Z,8.26
2022-12-25T17:55:41.189Z,8.23
2022-12-25T17:58:09.028Z,8.25
2022-12-25T18:00:36.471Z,8.31
2022-12-25T18:03:09.103Z,8.22
2022-12-25T18:05:37.794Z,8.24
2022-12-25T18:08:05.274Z,8.13
2022-12-25T18:10:39.454Z,8.19
2022-12-25T18:13:06.119Z,8.17
2022-12-25T18:15:35.889Z,8.12
2022-12-25T18:18:02.258Z,8.03
2022-12-25T18:20:31.801Z,8.06
2022-12-25T18:23:01.093Z,8.17
2022-12-25T18:25:27.931Z,8.17
2022-12-25T18:27:55.100Z,8.12
2022-12-25T18:30:21.480Z,8.13
2022-12-25T18:32:47.893Z,8.32
2022-12-25T18:35:14.334Z,8.31
2022-12-25T18:37:40.713Z,8.30
2022-12-25T18:40:07.778Z,8.21
2022-12-25T18:42:40.086Z,8.23
2022-12-25T18:45:08.967Z,8.25
2022-12-25T18:47:35.800Z,8.17
2022-12-25T18:50:02.230Z,8.14
2022-12-25T18:52:49.405Z,8.13
2022-12-25T18:55:15.021Z,8.15
2022-12-25T18:57:41.420Z,8.13
2022-12-25T19:00:08.462Z,8.05
2022-12-25T19:02:35.048Z,8.25
2022-12-25T19:05:01.703Z,8.32
2022-12-25T19:07:28.084Z,8.26
2022-12-25T19:09:54.449Z,8.30
2022-12-25T19:12:20.849Z,8.26
2022-12-25T19:14:48.498Z,8.27
2022-12-25T19:17:17.595Z,8.27
2022-12-25T19:19:44.222Z,8.27
2022-12-25T19:22:10.639Z,8.23
2022-12-25T19:24:37.244Z,8.19
2022-12-25T19:27:03.912Z,8.14
2022-12-25T19:29:31.716Z,8.15
2022-12-25T19:31:58.253Z,8.18
2022-12-25T19:34:24.764Z,8.15
2022-12-25T19:36:51.685Z,8.23
2022-12-25T19:39:18.852Z,8.12
2022-12-25T19:41:45.345Z,8.13
2022-12-25T19:44:11.796Z,8.06
2022-12-25T19:46:40.751Z,8.09
2022-12-25T19:49:11.300Z,8.10
2022-12-25T19:51:40.870Z,8.14
2022-12-25T19:54:07.591Z,8.09
2022-12-25T19:56:34.307Z,8.14
2022-12-25T19:59:00.955Z,8.12
2022-12-25T20:01:29.787Z,8.13
2022-12-25T20:03:56.759Z,8.13
2022-12-25T20:06:27.614Z,8.15
2022-12-25T20:08:57.084Z,8.15
2022-12-25T20:11:26.281Z,8.10
2022-12-25T20:13:53.680Z,8.12
2022-12-25T20:16:20.132Z,8.23
2022-12-25T20:18:46.594Z,8.27
2022-12-25T20:21:15.938Z,8.22
2022-12-25T20:23:42.882Z,8.21
2022-12-25T20:26:10.631Z,8.19
2022-12-25T20:28:38.757Z,8.21
2022-12-25T20:31:10.417Z,8.18
2022-12-25T20:33:37.534Z,8.13
2022-12-25T20:36:04.345Z,8.21
2022-12-25T20:38:30.909Z,8.19
2022-12-25T20:43:53.635Z,8.18
2022-12-25T20:46:20.194Z,8.19
2022-12-25T20:48:46.572Z,8.20
2022-12-25T20:51:18.873Z,8.12
2022-12-25T20:53:46.228Z,8.14
2022-12-25T20:56:14.090Z,8.17
2022-12-25T20:58:40.579Z,8.18
2022-12-25T21:01:12.539Z,8.19
2022-12-25T21:03:39.909Z,8.17
2022-12-25T21:06:07.017Z,8.05
2022-12-25T21:08:33.556Z,8.17
2022-12-25T21:11:00.998Z,8.12
2022-12-25T21:13:35.907Z,8.22
2022-12-25T21:16:05.631Z,8.20
2022-12-25T21:18:32.077Z,8.04
2022-12-25T21:20:59.250Z,8.08
2022-12-25T21:23:26.704Z,8.12
2022-12-25T21:25:54.586Z,8.12
2022-12-25T21:28:21.985Z,8.22
2022-12-25T21:30:48.483Z,8.14
2022-12-25T21:33:34.141Z,8.15
2022-12-25T21:36:08.868Z,8.16
2022-12-25T21:38:36.039Z,8.17
2022-12-25T21:41:07.694Z,8.14
2022-12-25T21:43:36.012Z,8.14
2022-12-25T21:46:11.797Z,8.20
2022-12-25T21:48:39.022Z,8.14
2022-12-25T21:51:31.899Z,8.18
2022-12-25T21:53:58.990Z,8.19
2022-12-25T21:56:27.841Z,8.18
2022-12-25T21:58:54.192Z,8.14
2022-12-25T22:01:20.637Z,8.12
2022-12-25T22:03:47.071Z,8.19
2022-12-25T22:06:32.030Z,8.19
2022-12-25T22:08:58.430Z,8.22
2022-12-25T22:11:44.354Z,8.20
2022-12-25T22:14:52.741Z,8.23
2022-12-25T22:17:42.032Z,8.24
2022-12-25T22:20:17.562Z,8.23
2022-12-25T22:22:44.448Z,8.24
2022-12-25T22:25:11.819Z,8.27
2022-12-25T22:27:39.645Z,8.21
2022-12-25T22:30:09.855Z,8.18
2022-12-25T22:32:36.403Z,8.12
2022-12-25T22:35:03.402Z,8.15
2022-12-25T22:37:29.859Z,8.15
2022-12-25T22:39:56.221Z,8.15
2022-12-25T22:42:22.660Z,8.18
2022-12-25T22:44:49.149Z,8.14
2022-12-25T22:47:15.576Z,8.20
2022-12-25T22:49:42.080Z,8.15
2022-12-25T22:52:09.806Z,8.15
2022-12-25T22:54:36.848Z,8.12
2022-12-25T22:57:03.856Z,8.10
2022-12-25T22:59:30.298Z,8.08
2022-12-25T23:01:56.805Z,8.11
2022-12-25T23:04:23.831Z,8.10
2022-12-25T23:06:50.793Z,8.09
2022-12-25T23:09:24.778Z,8.07
2022-12-25T23:11:51.454Z,8.04
2022-12-25T23:14:36.615Z,8.06
2022-12-25T23:17:03.085Z,8.05
2022-12-25T23:20:04.888Z,8.08
2022-12-25T23:22:49.672Z,8.06
2022-12-25T23:25:34.414Z,8.09
2022-12-25T23:28:00.797Z,8.08
2022-12-25T23:30:27.146Z,8.10
2022-12-25T23:32:53.498Z,8.09
2022-12-25T23:35:19.964Z,8.11
2022-12-25T23:37:46.967Z,8.12
2022-12-25T23:40:13.317Z,8.09
2022-12-25T23:42:39.674Z,8.10
2022-12-25T23:45:06.578Z,8.09
2022-12-25T23:47:32.933Z,8.09
2022-12-25T23:49:59.290Z,8.08
2022-12-25T23:52:25.642Z,8.09
2022-12-25T23:54:52.789Z,8.07
2022-12-25T23:57:19.156Z,8.09
2022-12-25T23:59:45.520Z,8.14
